Time;durP1;ratioP1;P1;durP2;ratioP2;P2;SDS_P1;SDS_P2;PMS_P1;PMS_P2;Temp;Humidity;BMP_temperature;BMP_pressure;BME280_temperature;BME280_humidity;BME280_pressure;Samples;Min_cycle;Max_cycle;Signal;HPM_P1;HPM_P2
2023/12/23 00:02:25;;;;;;;4.22;0.60;;;9.10;99.90;;;;;;4965489;28;20035;-69
2023/12/23 00:04:50;;;;;;;8.23;1.08;;;9.10;99.90;;;;;;4954896;28;20019;-70
2023/12/23 00:07:16;;;;;;;7.10;1.15;;;9.00;99.90;;;;;;4968491;28;20054;-69
2023/12/23 00:09:42;;;;;;;5.13;1.15;;;8.90;99.90;;;;;;4962970;28;20035;-69
2023/12/23 00:12:10;;;;;;;3.28;1.10;;;8.90;99.90;;;;;;4970198;28;20035;-70
2023/12/23 00:14:36;;;;;;;3.10;0.70;;;8.90;99.90;;;;;;4963461;28;20102;-69
2023/12/23 00:17:02;;;;;;;4.22;1.10;;;8.90;99.90;;;;;;4963797;28;20114;-69
2023/12/23 00:19:28;;;;;;;8.63;1.58;;;8.90;99.90;;;;;;4971016;28;20039;-70
2023/12/23 00:21:54;;;;;;;4.57;0.75;;;8.90;99.90;;;;;;4966724;28;20070;-70
2023/12/23 00:24:20;;;;;;;3.75;0.82;;;9.00;99.90;;;;;;4966480;28;20043;-70
2023/12/23 00:26:46;;;;;;;4.28;0.75;;;8.90;99.90;;;;;;4966367;28;20455;-70
2023/12/23 00:29:12;;;;;;;2.75;0.68;;;8.90;99.90;;;;;;4964175;28;20051;-70
2023/12/23 00:31:37;;;;;;;4.30;0.75;;;9.00;99.90;;;;;;4959700;28;20039;-70
2023/12/23 00:34:03;;;;;;;3.97;0.93;;;9.00;99.90;;;;;;4966470;28;20055;-69
2023/12/23 00:36:28;;;;;;;6.97;1.25;;;9.00;99.90;;;;;;4960905;28;20027;-69
2023/12/23 00:38:54;;;;;;;6.00;0.98;;;9.00;99.90;;;;;;4955005;28;20166;-70
2023/12/23 00:41:19;;;;;;;5.07;1.15;;;9.00;99.90;;;;;;4966402;28;20023;-69
2023/12/23 00:43:45;;;;;;;5.70;1.00;;;8.90;99.90;;;;;;4964773;28;20043;-68
2023/12/23 00:46:11;;;;;;;4.05;0.95;;;8.70;99.90;;;;;;4965536;28;20106;-68
2023/12/23 00:48:37;;;;;;;2.72;1.00;;;8.40;99.90;;;;;;4964488;28;20055;-69
2023/12/23 00:51:04;;;;;;;3.45;1.17;;;8.30;99.90;;;;;;4964152;28;20023;-68
2023/12/23 00:53:29;;;;;;;5.55;1.25;;;8.20;99.90;;;;;;4963004;28;20456;-68
2023/12/23 00:55:55;;;;;;;4.50;0.93;;;8.10;99.90;;;;;;4964297;28;20103;-68
2023/12/23 00:58:21;;;;;;;4.00;0.90;;;8.00;99.90;;;;;;4962909;28;20472;-68
2023/12/23 01:00:46;;;;;;;4.72;0.88;;;8.00;99.90;;;;;;4959026;28;20041;-68
2023/12/23 01:03:12;;;;;;;4.20;0.70;;;8.00;99.90;;;;;;4962625;28;20023;-69
2023/12/23 01:05:38;;;;;;;2.88;0.60;;;8.10;99.90;;;;;;4961846;28;20027;-69
2023/12/23 01:08:04;;;;;;;3.75;1.00;;;8.00;99.90;;;;;;4965635;28;20106;-69
2023/12/23 01:10:29;;;;;;;6.05;0.90;;;8.10;99.90;;;;;;4963160;28;20050;-69
2023/12/23 01:12:55;;;;;;;2.35;0.60;;;8.10;99.90;;;;;;4964561;28;20384;-69
2023/12/23 01:15:20;;;;;;;3.60;1.10;;;8.10;99.90;;;;;;4964059;28;20050;-69
2023/12/23 01:17:46;;;;;;;2.25;0.60;;;8.20;99.90;;;;;;4960962;28;20039;-69
2023/12/23 01:20:11;;;;;;;2.28;0.65;;;8.30;99.90;;;;;;4964920;28;20095;-69
2023/12/23 01:22:37;;;;;;;2.80;0.75;;;8.30;99.90;;;;;;4964739;28;20027;-69
2023/12/23 01:25:03;;;;;;;4.35;0.68;;;8.30;99.90;;;;;;4963981;28;20030;-69
2023/12/23 01:27:29;;;;;;;3.47;0.70;;;8.30;99.90;;;;;;4960735;28;20085;-69
2023/12/23 01:29:55;;;;;;;5.95;0.98;;;8.40;99.90;;;;;;4966509;28;20440;-69
2023/12/23 01:32:21;;;;;;;3.58;1.00;;;8.40;99.90;;;;;;4950734;28;20035;-69
2023/12/23 01:34:47;;;;;;;0.90;0.60;;;8.40;99.90;;;;;;4961407;28;20105;-69
2023/12/23 01:37:13;;;;;;;2.08;0.50;;;8.50;99.90;;;;;;4962524;28;20027;-69
2023/12/23 01:39:39;;;;;;;1.95;0.73;;;8.40;99.90;;;;;;4962390;28;20023;-69
2023/12/23 01:42:04;;;;;;;3.67;0.60;;;8.40;99.90;;;;;;4965411;28;20357;-69
2023/12/23 01:44:30;;;;;;;0.70;0.30;;;8.30;99.90;;;;;;4960163;28;20035;-69
2023/12/23 01:46:58;;;;;;;3.60;1.02;;;8.20;99.90;;;;;;4963887;28;20026;-69
2023/12/23 01:49:25;;;;;;;4.95;0.82;;;8.20;99.90;;;;;;4965096;28;20045;-69
2023/12/23 01:51:52;;;;;;;2.33;0.82;;;8.30;99.90;;;;;;4963440;28;20030;-69
2023/12/23 01:54:19;;;;;;;5.75;1.33;;;8.20;99.90;;;;;;4962813;28;20042;-70
2023/12/23 01:56:46;;;;;;;2.13;0.68;;;8.30;99.90;;;;;;4962538;28;20039;-69
2023/12/23 01:59:12;;;;;;;5.07;0.82;;;8.20;99.90;;;;;;4960806;28;20034;-68
2023/12/23 02:01:40;;;;;;;5.50;1.10;;;8.30;99.90;;;;;;4962441;28;20031;-69
2023/12/23 02:04:05;;;;;;;6.75;2.17;;;8.40;99.90;;;;;;4960597;28;20102;-69
2023/12/23 02:06:31;;;;;;;8.75;1.33;;;8.40;99.90;;;;;;4963172;28;20223;-68
2023/12/23 02:08:57;;;;;;;6.05;1.10;;;8.50;99.90;;;;;;4965156;28;20039;-68
2023/12/23 02:11:44;;;;;;;5.03;0.88;;;8.50;99.90;;;;;;4958599;28;20110;-68
2023/12/23 02:14:30;;;;;;;7.18;1.20;;;8.50;99.90;;;;;;4963003;28;20058;-69
2023/12/23 02:16:57;;;;;;;4.55;0.88;;;8.50;99.90;;;;;;4964437;28;20511;-70
2023/12/23 02:19:22;;;;;;;8.52;1.45;;;8.60;99.90;;;;;;4964443;28;20077;-67
2023/12/23 02:21:48;;;;;;;4.65;1.20;;;8.60;99.90;;;;;;4964825;28;20708;-70
2023/12/23 02:24:13;;;;;;;7.00;1.15;;;8.50;99.90;;;;;;4964097;28;20083;-70
2023/12/23 02:26:41;;;;;;;6.18;1.63;;;8.50;99.90;;;;;;4966306;28;20115;-70
2023/12/23 02:29:07;;;;;;;4.15;1.33;;;8.50;99.90;;;;;;4972098;28;20042;-70
2023/12/23 02:31:33;;;;;;;5.15;1.17;;;8.50;99.90;;;;;;4971561;28;20027;-68
2023/12/23 02:33:59;;;;;;;5.00;1.20;;;8.50;99.90;;;;;;4961947;28;20106;-69
2023/12/23 02:36:25;;;;;;;5.80;1.48;;;8.40;99.90;;;;;;4966974;28;20038;-70
2023/12/23 02:38:51;;;;;;;2.38;0.70;;;8.40;99.90;;;;;;4973902;28;20041;-69
2023/12/23 02:41:16;;;;;;;6.05;0.95;;;8.40;99.90;;;;;;4969780;28;20472;-69
2023/12/23 02:43:42;;;;;;;7.75;1.17;;;8.30;99.90;;;;;;4963826;28;20030;-69
2023/12/23 02:46:08;;;;;;;4.20;1.17;;;8.20;99.90;;;;;;4971333;28;20157;-70
2023/12/23 02:48:33;;;;;;;4.80;0.98;;;8.20;99.90;;;;;;4963898;28;20564;-69
2023/12/23 02:50:59;;;;;;;7.25;1.00;;;8.20;99.90;;;;;;4961487;28;20042;-70
2023/12/23 02:53:24;;;;;;;6.45;1.58;;;8.30;99.90;;;;;;4957347;28;20031;-69
2023/12/23 02:55:50;;;;;;;2.97;1.40;;;8.30;99.90;;;;;;4968280;28;20102;-69
2023/12/23 02:58:15;;;;;;;5.60;1.05;;;8.30;99.90;;;;;;4957426;28;20019;-69
2023/12/23 03:00:41;;;;;;;4.82;1.13;;;8.30;99.90;;;;;;4965266;28;20057;-69
2023/12/23 03:03:07;;;;;;;5.93;0.73;;;8.40;99.90;;;;;;4970625;28;20031;-70
2023/12/23 03:05:32;;;;;;;3.08;0.85;;;8.50;99.90;;;;;;4971794;28;20647;-69
2023/12/23 03:07:58;;;;;;;2.38;0.70;;;8.40;99.90;;;;;;4960179;28;20020;-69
2023/12/23 03:10:24;;;;;;;5.30;0.85;;;8.50;99.90;;;;;;4964821;28;20038;-69
2023/12/23 03:12:49;;;;;;;3.63;1.00;;;8.50;99.90;;;;;;4972830;28;20037;-69
2023/12/23 03:15:15;;;;;;;5.13;1.30;;;8.40;99.90;;;;;;4962600;28;20496;-71
2023/12/23 03:17:41;;;;;;;4.35;1.02;;;8.40;99.90;;;;;;4956885;28;20030;-70
2023/12/23 03:20:08;;;;;;;2.55;0.93;;;8.40;99.90;;;;;;4971986;28;20490;-69
2023/12/23 03:22:34;;;;;;;3.97;0.90;;;8.40;99.90;;;;;;4966024;28;20106;-70
2023/12/23 03:24:59;;;;;;;5.43;1.13;;;8.40;99.90;;;;;;4970025;28;20433;-69
2023/12/23 03:27:25;;;;;;;6.10;1.27;;;8.40;99.90;;;;;;4955033;28;20027;-69
2023/12/23 03:29:50;;;;;;;4.43;1.02;;;8.40;99.90;;;;;;4970639;28;20102;-70
2023/12/23 03:32:16;;;;;;;5.38;1.20;;;8.40;99.90;;;;;;4965416;28;20412;-70
2023/12/23 03:34:41;;;;;;;3.40;0.77;;;8.50;99.90;;;;;;4964894;28;20027;-69
2023/12/23 03:37:07;;;;;;;3.20;0.90;;;8.40;99.90;;;;;;4969559;28;20101;-70
2023/12/23 03:39:33;;;;;;;6.30;1.02;;;8.50;99.90;;;;;;4970400;28;20027;-70
2023/12/23 03:41:58;;;;;;;4.68;1.10;;;8.50;99.90;;;;;;4953873;28;20047;-70
2023/12/23 03:44:24;;;;;;;5.93;1.17;;;8.50;99.90;;;;;;4963931;28;20052;-70
2023/12/23 03:46:49;;;;;;;6.50;1.70;;;8.50;99.90;;;;;;4971717;28;20110;-69
2023/12/23 03:49:15;;;;;;;5.30;1.02;;;8.60;99.90;;;;;;4957824;28;20484;-69
2023/12/23 03:51:40;;;;;;;4.18;0.80;;;8.60;99.90;;;;;;4960474;28;20118;-70
2023/12/23 03:54:06;;;;;;;4.03;0.90;;;8.60;99.90;;;;;;4968018;28;20062;-70
2023/12/23 03:56:31;;;;;;;4.78;0.93;;;8.60;99.90;;;;;;4962728;28;20031;-69
2023/12/23 03:58:58;;;;;;;4.28;1.00;;;8.60;99.90;;;;;;4960578;28;20587;-69
2023/12/23 04:01:24;;;;;;;3.65;0.75;;;8.60;99.90;;;;;;4965339;28;20031;-70
2023/12/23 04:03:50;;;;;;;4.32;1.25;;;8.60;99.90;;;;;;4969241;28;20031;-70
2023/12/23 04:06:15;;;;;;;3.05;0.90;;;8.60;99.90;;;;;;4963735;28;20106;-69
2023/12/23 04:08:42;;;;;;;3.15;0.80;;;8.50;99.90;;;;;;4966297;28;20028;-70
2023/12/23 04:11:07;;;;;;;7.10;1.08;;;8.40;99.90;;;;;;4963602;28;20074;-70
2023/12/23 04:13:33;;;;;;;4.22;1.42;;;8.30;99.90;;;;;;4969060;28;20030;-70
2023/12/23 04:16:03;;;;;;;3.38;0.90;;;8.20;99.90;;;;;;4963793;28;20069;-70
2023/12/23 04:18:28;;;;;;;6.43;0.88;;;8.20;99.90;;;;;;4958477;28;20387;-70
2023/12/23 04:20:54;;;;;;;5.47;1.10;;;8.20;99.90;;;;;;4970485;28;20030;-70
2023/12/23 04:23:19;;;;;;;3.95;0.95;;;8.10;99.90;;;;;;4967376;28;20086;-70
2023/12/23 04:25:45;;;;;;;4.93;0.85;;;8.10;99.90;;;;;;4975860;28;20023;-69
2023/12/23 04:28:11;;;;;;;2.15;0.60;;;8.10;99.90;;;;;;4980878;28;20033;-68
2023/12/23 04:30:37;;;;;;;4.68;0.88;;;8.10;99.90;;;;;;4976204;28;20039;-70
2023/12/23 04:33:03;;;;;;;2.05;0.90;;;8.10;99.90;;;;;;4968020;28;20058;-70
2023/12/23 04:35:28;;;;;;;2.47;0.88;;;8.20;99.90;;;;;;4965239;28;20029;-69
2023/12/23 04:37:55;;;;;;;3.58;1.00;;;8.20;99.90;;;;;;4970263;28;20029;-69
2023/12/23 04:40:20;;;;;;;3.95;1.23;;;8.10;99.90;;;;;;4969517;28;20038;-70
2023/12/23 04:42:46;;;;;;;4.80;1.15;;;8.20;99.90;;;;;;4964820;28;20494;-69
2023/12/23 04:45:12;;;;;;;5.57;1.00;;;8.10;99.90;;;;;;4968745;28;20030;-68
2023/12/23 04:47:38;;;;;;;4.03;0.70;;;8.20;99.90;;;;;;4967691;28;20026;-68
2023/12/23 04:50:04;;;;;;;1.48;0.50;;;8.20;99.90;;;;;;4953426;28;20583;-68
2023/12/23 04:52:30;;;;;;;2.75;0.77;;;8.20;99.90;;;;;;4962072;28;20035;-68
2023/12/23 04:54:55;;;;;;;2.08;0.73;;;8.20;99.90;;;;;;4970589;28;20029;-69
2023/12/23 04:57:21;;;;;;;1.88;0.95;;;8.30;99.90;;;;;;4959246;28;20059;-68
2023/12/23 04:59:46;;;;;;;4.65;0.90;;;8.30;99.90;;;;;;4960036;28;20468;-68
2023/12/23 05:02:12;;;;;;;4.80;0.60;;;8.40;99.90;;;;;;4967109;28;20047;-68
2023/12/23 05:04:38;;;;;;;4.03;0.60;;;8.50;99.90;;;;;;4961730;28;20098;-68
2023/12/23 05:07:03;;;;;;;2.05;0.40;;;8.50;99.90;;;;;;4959819;28;20031;-68
2023/12/23 05:09:29;;;;;;;3.83;0.70;;;8.60;99.90;;;;;;4964407;28;20078;-68
2023/12/23 05:11:54;;;;;;;1.13;0.50;;;8.60;99.90;;;;;;4968912;28;20038;-68
2023/12/23 05:14:20;;;;;;;1.75;0.60;;;8.60;99.90;;;;;;4963957;28;20038;-69
2023/12/23 05:16:46;;;;;;;4.10;0.40;;;8.60;99.90;;;;;;4965836;28;20138;-69
2023/12/23 05:19:11;;;;;;;3.90;0.60;;;8.70;99.90;;;;;;4972479;28;20046;-68
2023/12/23 05:21:37;;;;;;;2.70;0.70;;;8.70;99.90;;;;;;4966299;28;20675;-68
2023/12/23 05:24:03;;;;;;;1.80;0.50;;;8.60;99.90;;;;;;4958228;28;20030;-68
2023/12/23 05:26:28;;;;;;;1.38;0.50;;;8.70;99.90;;;;;;4960278;28;20031;-68
2023/12/23 05:28:54;;;;;;;2.33;0.40;;;8.60;99.90;;;;;;4969512;28;20027;-68
2023/12/23 05:31:20;;;;;;;5.55;0.60;;;8.60;99.90;;;;;;4959030;28;20468;-68
2023/12/23 05:33:46;;;;;;;2.13;0.65;;;8.70;99.90;;;;;;4958862;28;20031;-68
2023/12/23 05:36:12;;;;;;;2.70;0.52;;;8.70;99.90;;;;;;4965534;28;20051;-69
2023/12/23 05:38:38;;;;;;;2.15;0.57;;;8.70;99.90;;;;;;4970250;28;20023;-69
2023/12/23 05:41:03;;;;;;;0.40;0.20;;;8.70;99.90;;;;;;4967838;28;20439;-68
2023/12/23 05:43:29;;;;;;;0.80;0.28;;;8.70;99.90;;;;;;4961290;28;20074;-68
2023/12/23 05:45:54;;;;;;;0.85;0.10;;;8.60;99.90;;;;;;4966707;28;20019;-68
2023/12/23 05:48:20;;;;;;;0.93;0.30;;;8.70;99.90;;;;;;4963535;28;20453;-68
2023/12/23 05:50:45;;;;;;;0.70;0.35;;;8.60;99.90;;;;;;4958500;28;20054;-68
2023/12/23 05:53:11;;;;;;;1.55;0.40;;;8.70;99.90;;;;;;4965369;28;20027;-68
2023/12/23 05:55:37;;;;;;;2.13;0.40;;;8.60;99.90;;;;;;4972416;28;20127;-69
2023/12/23 05:58:02;;;;;;;1.27;0.40;;;8.60;99.90;;;;;;4969901;28;20027;-68
2023/12/23 06:00:28;;;;;;;0.65;0.10;;;8.50;99.90;;;;;;4963114;28;20155;-70
2023/12/23 06:02:53;;;;;;;0.57;0.17;;;8.50;99.90;;;;;;4972031;28;20022;-68
2023/12/23 06:05:19;;;;;;;0.32;0.10;;;8.40;99.90;;;;;;4975154;28;20063;-69
2023/12/23 06:07:45;;;;;;;0.82;0.20;;;8.30;99.90;;;;;;4965682;28;20039;-71
2023/12/23 06:10:11;;;;;;;1.52;0.30;;;8.30;99.90;;;;;;4968606;28;20070;-69
2023/12/23 06:12:36;;;;;;;0.60;0.10;;;8.20;99.90;;;;;;4969181;28;20377;-69
2023/12/23 06:15:02;;;;;;;0.10;0.10;;;8.10;99.90;;;;;;4967693;28;20055;-69
2023/12/23 06:17:28;;;;;;;0.95;0.05;;;8.10;99.90;;;;;;4962544;28;20035;-70
2023/12/23 06:19:53;;;;;;;1.13;0.10;;;8.00;99.90;;;;;;4971006;28;20110;-70
2023/12/23 06:22:19;;;;;;;0.10;0.08;;;8.00;99.90;;;;;;4972605;28;20449;-70
2023/12/23 06:24:45;;;;;;;0.10;0.10;;;8.00;99.90;;;;;;4973992;28;20027;-69
2023/12/23 06:27:10;;;;;;;0.00;0.00;;;8.00;99.90;;;;;;4965420;28;20115;-69
2023/12/23 06:29:36;;;;;;;0.00;0.00;;;7.90;99.90;;;;;;4958084;28;20440;-73
2023/12/23 06:32:02;;;;;;;0.35;0.10;;;8.00;99.90;;;;;;4963730;28;20039;-74
2023/12/23 06:34:27;;;;;;;0.30;0.30;;;8.00;99.90;;;;;;4964539;28;20024;-70
2023/12/23 06:36:53;;;;;;;0.20;0.08;;;8.00;99.90;;;;;;4956648;28;20136;-69
2023/12/23 06:39:19;;;;;;;0.68;0.10;;;8.00;99.90;;;;;;4955238;28;20070;-70
2023/12/23 06:41:45;;;;;;;0.13;0.10;;;8.00;99.90;;;;;;4960752;28;20078;-72
2023/12/23 06:44:10;;;;;;;0.10;0.10;;;8.00;99.90;;;;;;4963561;28;20416;-73
2023/12/23 06:46:36;;;;;;;0.60;0.10;;;8.00;99.90;;;;;;4956844;28;20093;-70
2023/12/23 06:49:02;;;;;;;0.08;0.08;;;8.10;99.90;;;;;;4956667;28;20027;-69
2023/12/23 06:51:27;;;;;;;1.85;0.00;;;8.10;99.90;;;;;;4966896;28;20043;-71
2023/12/23 06:53:55;;;;;;;0.17;0.03;;;8.10;99.90;;;;;;4962295;28;20054;-69
2023/12/23 06:56:22;;;;;;;1.65;0.00;;;8.20;99.90;;;;;;4957438;28;20024;-69
2023/12/23 06:58:48;;;;;;;0.00;0.00;;;8.10;99.90;;;;;;4967224;28;20181;-69
2023/12/23 07:01:14;;;;;;;0.03;0.00;;;8.00;99.90;;;;;;4968024;28;20501;-69
2023/12/23 07:03:43;;;;;;;0.45;0.03;;;8.00;99.90;;;;;;4963587;28;20475;-68
2023/12/23 07:06:12;;;;;;;0.30;0.10;;;8.00;99.90;;;;;;4961349;28;20479;-69
2023/12/23 07:08:39;;;;;;;2.90;0.10;;;8.10;99.90;;;;;;4970117;28;20111;-69
2023/12/23 07:11:11;;;;;;;0.45;0.15;;;8.10;99.90;;;;;;4973300;28;20039;-69
2023/12/23 07:13:36;;;;;;;0.50;0.10;;;8.00;99.90;;;;;;4969114;28;20030;-70
2023/12/23 07:16:02;;;;;;;2.08;0.10;;;8.10;99.90;;;;;;4971915;28;20077;-69
2023/12/23 07:18:27;;;;;;;1.52;0.10;;;8.10;99.90;;;;;;4965251;28;20027;-69
2023/12/23 07:20:54;;;;;;;0.75;0.17;;;8.00;99.90;;;;;;4968731;28;20035;-67
2023/12/23 07:23:19;;;;;;;1.45;0.10;;;8.10;99.90;;;;;;4967792;28;20026;-68
2023/12/23 07:25:45;;;;;;;0.20;0.10;;;8.10;99.90;;;;;;4959530;28;20038;-68
2023/12/23 07:28:11;;;;;;;0.80;0.10;;;8.10;99.90;;;;;;4964960;28;20391;-68
2023/12/23 07:30:44;;;;;;;0.20;0.10;;;8.10;99.90;;;;;;4972461;28;20357;-69
2023/12/23 07:33:10;;;;;;;2.58;0.38;;;8.10;99.90;;;;;;4972780;28;20030;-70
2023/12/23 07:35:36;;;;;;;2.50;0.20;;;8.10;99.90;;;;;;4969932;28;20181;-71
2023/12/23 07:38:02;;;;;;;0.25;0.25;;;8.10;99.90;;;;;;4971210;28;20392;-70
2023/12/23 07:40:28;;;;;;;2.15;0.40;;;8.10;99.90;;;;;;4972533;28;20030;-73
2023/12/23 07:42:53;;;;;;;0.55;0.20;;;8.10;99.90;;;;;;4970852;28;20376;-70
2023/12/23 07:45:21;;;;;;;1.27;0.10;;;8.20;99.90;;;;;;4968775;28;20046;-70
2023/12/23 07:47:47;;;;;;;0.95;0.20;;;8.20;99.90;;;;;;4965664;28;20114;-68
2023/12/23 07:50:13;;;;;;;0.47;0.15;;;8.20;99.90;;;;;;4964198;28;20049;-70
2023/12/23 07:52:39;;;;;;;0.30;0.20;;;8.30;99.90;;;;;;4970358;28;20062;-69
2023/12/23 07:55:06;;;;;;;0.95;0.10;;;8.30;99.90;;;;;;4969545;28;20041;-69
2023/12/23 07:57:31;;;;;;;0.20;0.10;;;8.30;99.90;;;;;;4971724;28;20034;-73
2023/12/23 07:59:57;;;;;;;0.75;0.20;;;8.30;99.90;;;;;;4961755;28;20031;-70
2023/12/23 08:02:23;;;;;;;0.80;0.22;;;8.30;99.90;;;;;;4963313;28;20082;-71
2023/12/23 08:04:48;;;;;;;1.05;0.20;;;8.30;99.90;;;;;;4964350;28;20491;-70
2023/12/23 08:07:14;;;;;;;0.50;0.10;;;8.30;99.90;;;;;;4966813;28;20110;-72
2023/12/23 08:09:39;;;;;;;1.35;0.30;;;8.20;99.90;;;;;;4968872;28;20031;-70
2023/12/23 08:12:07;;;;;;;0.85;0.25;;;8.30;99.90;;;;;;4965492;28;20027;-72
2023/12/23 08:14:32;;;;;;;0.28;0.20;;;8.20;99.90;;;;;;4952420;28;20031;-71
2023/12/23 08:16:58;;;;;;;0.52;0.20;;;8.30;99.90;;;;;;4952901;28;20373;-70
2023/12/23 08:19:23;;;;;;;0.93;0.20;;;8.30;99.90;;;;;;4963745;28;20035;-71
2023/12/23 08:21:49;;;;;;;0.93;0.40;;;8.30;99.90;;;;;;4961706;28;20572;-71
2023/12/23 08:24:14;;;;;;;0.93;0.30;;;8.40;99.90;;;;;;4964361;28;20023;-71
2023/12/23 08:26:40;;;;;;;0.50;0.35;;;8.40;99.90;;;;;;4962160;28;20027;-73
2023/12/23 08:29:06;;;;;;;0.38;0.20;;;8.50;99.90;;;;;;4957560;28;20034;-69
2023/12/23 08:31:31;;;;;;;0.05;0.00;;;8.60;99.90;;;;;;4961713;28;20110;-69
2023/12/23 08:33:57;;;;;;;0.32;0.20;;;8.70;99.90;;;;;;4967317;28;20030;-70
2023/12/23 08:36:22;;;;;;;0.60;0.30;;;8.60;99.90;;;;;;4961627;28;20023;-71
2023/12/23 08:38:49;;;;;;;0.20;0.05;;;8.70;99.90;;;;;;4959633;28;20127;-71
2023/12/23 08:41:15;;;;;;;0.10;0.05;;;8.70;99.90;;;;;;4967281;28;20369;-74
2023/12/23 08:43:40;;;;;;;0.85;0.10;;;8.80;99.90;;;;;;4964932;28;20042;-71
2023/12/23 08:46:06;;;;;;;0.57;0.15;;;8.80;99.90;;;;;;4957639;28;20086;-74
2023/12/23 08:48:31;;;;;;;0.75;0.10;;;8.80;99.90;;;;;;4950093;28;20023;-72
2023/12/23 08:50:57;;;;;;;0.40;0.20;;;8.80;99.90;;;;;;4964342;28;20038;-72
2023/12/23 08:53:23;;;;;;;0.63;0.10;;;8.80;99.90;;;;;;4969606;28;20059;-74
2023/12/23 08:55:48;;;;;;;0.93;0.20;;;8.80;99.90;;;;;;4960301;28;20023;-73
2023/12/23 08:58:15;;;;;;;0.20;0.10;;;8.80;99.90;;;;;;4969490;28;20048;-73
2023/12/23 09:00:40;;;;;;;0.30;0.20;;;8.80;99.90;;;;;;4971168;28;20030;-72
2023/12/23 09:03:06;;;;;;;0.20;0.20;;;8.80;99.90;;;;;;4969314;28;20274;-72
2023/12/23 09:05:31;;;;;;;0.20;0.20;;;8.90;99.90;;;;;;4969372;28;20452;-72
2023/12/23 09:07:57;;;;;;;1.10;0.50;;;8.90;99.90;;;;;;4959347;28;20023;-72
2023/12/23 09:10:23;;;;;;;1.40;0.25;;;8.90;99.90;;;;;;4970082;28;20673;-72
2023/12/23 09:12:48;;;;;;;1.40;0.47;;;9.00;99.90;;;;;;4963341;28;20039;-74
2023/12/23 09:15:14;;;;;;;0.10;0.10;;;9.00;99.90;;;;;;4961102;28;20412;-74
2023/12/23 09:17:40;;;;;;;0.50;0.10;;;9.10;99.90;;;;;;4955766;28;20094;-76
2023/12/23 09:20:06;;;;;;;0.22;0.10;;;9.10;99.90;;;;;;4968484;28;20096;-73
2023/12/23 09:22:32;;;;;;;0.93;0.22;;;9.10;99.90;;;;;;4965455;28;20023;-73
2023/12/23 09:24:57;;;;;;;1.55;0.10;;;9.10;99.90;;;;;;4967293;28;20042;-71
2023/12/23 09:27:23;;;;;;;0.10;0.10;;;9.20;99.90;;;;;;4962839;28;20037;-74
2023/12/23 09:29:48;;;;;;;0.30;0.10;;;9.20;99.90;;;;;;4975549;28;20031;-73
2023/12/23 09:32:14;;;;;;;0.10;0.10;;;9.20;99.90;;;;;;4968115;28;20020;-72
2023/12/23 09:34:40;;;;;;;0.25;0.00;;;9.20;99.90;;;;;;4966633;28;20065;-71
2023/12/23 09:37:05;;;;;;;0.80;0.28;;;9.30;99.90;;;;;;4975936;28;20035;-75
2023/12/23 09:39:31;;;;;;;0.10;0.10;;;9.30;99.90;;;;;;4974498;28;20030;-70
2023/12/23 09:41:57;;;;;;;0.13;0.10;;;9.40;99.90;;;;;;4959279;28;20465;-73
2023/12/23 09:44:23;;;;;;;0.10;0.10;;;9.40;99.90;;;;;;4964896;28;20031;-70
2023/12/23 09:46:50;;;;;;;0.10;0.10;;;9.40;99.90;;;;;;4966533;28;20410;-70
2023/12/23 09:49:16;;;;;;;0.40;0.10;;;9.40;99.90;;;;;;4967745;28;20031;-71
2023/12/23 09:51:44;;;;;;;0.13;0.10;;;9.40;99.90;;;;;;4957270;28;20144;-72
2023/12/23 09:54:15;;;;;;;0.70;0.57;;;9.50;99.90;;;;;;4961599;28;20023;-73
2023/12/23 09:56:42;;;;;;;1.00;0.08;;;9.40;99.90;;;;;;4968119;28;20646;-74
2023/12/23 09:59:08;;;;;;;0.10;0.10;;;9.50;99.90;;;;;;4970533;28;20121;-73
2023/12/23 10:01:34;;;;;;;1.70;0.25;;;9.50;99.90;;;;;;4959675;28;20023;-70
2023/12/23 10:03:59;;;;;;;0.00;0.00;;;9.50;99.90;;;;;;4962551;28;20070;-72
2023/12/23 10:06:25;;;;;;;0.50;0.10;;;9.60;99.90;;;;;;4964465;28;20027;-73
2023/12/23 10:08:51;;;;;;;0.40;0.10;;;9.60;99.90;;;;;;4967625;28;20081;-71
2023/12/23 10:11:17;;;;;;;0.20;0.00;;;9.60;99.90;;;;;;4965735;28;20038;-71
2023/12/23 10:13:43;;;;;;;0.20;0.20;;;9.60;99.90;;;;;;4967605;28;20018;-73
2023/12/23 10:16:08;;;;;;;0.52;0.10;;;9.70;99.90;;;;;;4973201;28;20482;-73
2023/12/23 10:18:34;;;;;;;0.63;0.10;;;9.70;99.90;;;;;;4973278;28;20031;-72
2023/12/23 10:21:00;;;;;;;0.22;0.10;;;9.70;99.90;;;;;;4967762;28;20510;-76
2023/12/23 10:23:28;;;;;;;0.10;0.10;;;9.70;99.90;;;;;;4968135;28;20023;-71
2023/12/23 10:25:54;;;;;;;0.32;0.32;;;9.70;99.90;;;;;;4970952;28;20037;-73
2023/12/23 10:28:23;;;;;;;0.30;0.28;;;9.70;99.90;;;;;;4958812;28;20027;-71
2023/12/23 10:30:50;;;;;;;0.10;0.10;;;9.70;99.90;;;;;;4975022;28;20039;-72
2023/12/23 10:33:17;;;;;;;0.15;0.10;;;9.70;99.90;;;;;;4969958;28;20034;-71
2023/12/23 10:35:47;;;;;;;0.30;0.10;;;9.60;99.90;;;;;;4954740;28;20031;-71
2023/12/23 10:38:20;;;;;;;0.57;0.28;;;9.60;99.90;;;;;;4962196;28;20031;-71
2023/12/23 10:40:52;;;;;;;0.40;0.10;;;9.70;99.90;;;;;;4971791;28;20043;-72
2023/12/23 10:43:18;;;;;;;0.10;0.10;;;9.70;99.90;;;;;;4974198;28;20525;-73
2023/12/23 10:45:48;;;;;;;0.15;0.15;;;9.80;99.90;;;;;;4961384;28;20050;-73
2023/12/23 10:48:16;;;;;;;0.10;0.10;;;9.80;99.90;;;;;;4964724;28;20069;-73
2023/12/23 10:50:43;;;;;;;1.00;0.10;;;9.80;99.90;;;;;;4958440;28;20063;-69
2023/12/23 10:53:12;;;;;;;0.20;0.10;;;9.80;99.90;;;;;;4959861;28;20031;-73
2023/12/23 10:55:39;;;;;;;0.10;0.10;;;9.80;99.90;;;;;;4962739;28;20384;-75
2023/12/23 10:58:09;;;;;;;0.10;0.08;;;9.90;99.90;;;;;;4969356;28;20042;-75
2023/12/23 11:00:36;;;;;;;0.05;0.03;;;9.90;99.90;;;;;;4964704;28;20388;-76
2023/12/23 11:03:03;;;;;;;0.10;0.10;;;9.90;99.90;;;;;;4963658;28;20038;-71
2023/12/23 11:05:32;;;;;;;0.20;0.20;;;9.90;99.90;;;;;;4963222;28;20038;-72
2023/12/23 11:08:01;;;;;;;0.05;0.05;;;10.00;99.90;;;;;;4962379;28;20031;-75
2023/12/23 11:10:28;;;;;;;0.10;0.05;;;10.10;99.90;;;;;;4964303;28;20034;-77
2023/12/23 11:12:55;;;;;;;0.17;0.10;;;10.00;99.90;;;;;;4968412;28;20480;-78
2023/12/23 11:15:20;;;;;;;0.40;0.10;;;10.10;99.90;;;;;;4965412;28;20130;-78
2023/12/23 11:17:46;;;;;;;0.28;0.10;;;10.20;99.90;;;;;;4968905;28;20110;-79
2023/12/23 11:20:35;;;;;;;0.40;0.15;;;10.10;99.90;;;;;;4960083;28;20039;-79
2023/12/23 11:23:26;;;;;;;0.00;0.00;;;10.10;99.90;;;;;;4950684;28;20042;-69
2023/12/23 11:25:54;;;;;;;0.30;0.10;;;10.00;99.90;;;;;;4962939;28;20354;-76
2023/12/23 11:28:20;;;;;;;1.45;0.10;;;9.90;99.90;;;;;;4962489;28;20034;-74
2023/12/23 11:30:53;;;;;;;0.55;0.20;;;10.00;99.90;;;;;;4965199;28;20037;-88
2023/12/23 11:33:19;;;;;;;0.20;0.10;;;10.10;99.90;;;;;;4960371;28;20548;-73
2023/12/23 11:35:52;;;;;;;0.10;0.10;;;10.10;99.90;;;;;;4963563;28;20015;-73
2023/12/23 11:38:20;;;;;;;1.38;0.20;;;10.10;99.90;;;;;;4963337;28;20033;-72
2023/12/23 11:40:47;;;;;;;0.98;0.17;;;10.10;99.90;;;;;;4964335;28;20372;-71
2023/12/23 11:43:13;;;;;;;0.20;0.20;;;10.10;99.90;;;;;;4960366;28;20045;-72
2023/12/23 11:45:39;;;;;;;1.67;0.10;;;10.20;99.90;;;;;;4962634;28;20528;-72
2023/12/23 11:48:07;;;;;;;0.13;0.13;;;10.20;99.90;;;;;;4962111;28;20112;-72
2023/12/23 11:50:33;;;;;;;0.20;0.20;;;10.20;99.90;;;;;;4961478;28;20046;-72
2023/12/23 11:52:59;;;;;;;0.52;0.10;;;10.20;99.90;;;;;;4963193;28;20026;-72
2023/12/23 11:55:25;;;;;;;0.38;0.20;;;10.10;99.90;;;;;;4961691;28;20110;-71
2023/12/23 11:57:51;;;;;;;0.20;0.20;;;10.20;99.90;;;;;;4962431;28;20114;-79
2023/12/23 12:00:18;;;;;;;0.10;0.10;;;10.20;99.90;;;;;;4963513;28;20464;-75
2023/12/23 12:02:43;;;;;;;0.70;0.25;;;10.20;99.90;;;;;;4962998;28;20034;-76
2023/12/23 12:05:09;;;;;;;0.32;0.17;;;10.20;99.90;;;;;;4964768;28;20027;-78
2023/12/23 12:07:35;;;;;;;0.73;0.10;;;10.10;99.90;;;;;;4962252;28;20026;-72
2023/12/23 12:10:00;;;;;;;0.30;0.20;;;10.10;99.90;;;;;;4962447;28;20026;-74
2023/12/23 12:12:26;;;;;;;0.57;0.40;;;10.10;99.90;;;;;;4962611;28;20058;-74
2023/12/23 12:14:52;;;;;;;0.10;0.10;;;10.00;99.90;;;;;;4874008;28;2614993;-76
2023/12/23 12:17:18;;;;;;;0.45;0.15;;;10.10;99.90;;;;;;4959996;28;20038;-73
2023/12/23 12:19:44;;;;;;;0.35;0.30;;;10.10;99.90;;;;;;4965070;28;20031;-79
2023/12/23 12:22:09;;;;;;;0.52;0.20;;;10.10;99.90;;;;;;4964435;28;20093;-75
2023/12/23 12:24:37;;;;;;;0.82;0.20;;;10.10;99.90;;;;;;4962485;28;20097;-80
2023/12/23 12:27:03;;;;;;;0.10;0.10;;;10.00;99.90;;;;;;4968403;28;20033;-79
2023/12/23 12:29:29;;;;;;;0.47;0.28;;;10.10;99.90;;;;;;4961155;28;20114;-80
2023/12/23 12:31:57;;;;;;;0.35;0.30;;;10.00;99.90;;;;;;4966070;28;20035;-77
2023/12/23 12:34:23;;;;;;;0.20;0.20;;;9.90;99.90;;;;;;4963171;28;20027;-74
2023/12/23 12:36:52;;;;;;;0.20;0.10;;;9.90;99.90;;;;;;4964426;28;20026;-75
2023/12/23 12:39:19;;;;;;;0.25;0.10;;;9.90;99.90;;;;;;4961860;28;20031;-76
2023/12/23 12:41:47;;;;;;;1.23;0.20;;;9.90;99.90;;;;;;4961936;28;20019;-75
2023/12/23 12:44:12;;;;;;;0.55;0.10;;;9.80;99.90;;;;;;4964765;28;20034;-78
2023/12/23 12:46:38;;;;;;;0.10;0.10;;;9.80;99.90;;;;;;4970472;28;20035;-77
2023/12/23 12:49:05;;;;;;;0.75;0.50;;;9.90;99.90;;;;;;4959441;28;20460;-80
2023/12/23 12:51:32;;;;;;;0.20;0.10;;;9.90;99.90;;;;;;4960463;28;20452;-74